createdAt,value
2023-02-09T00:00:02.622Z,20.37
2023-02-09T00:02:29.814Z,19.13
2023-02-09T00:04:56.809Z,18.87
2023-02-09T00:07:23.776Z,16.33
2023-02-09T00:09:51.887Z,19.40
2023-02-09T00:12:38.186Z,15.83
2023-02-09T00:15:06.826Z,14.83
2023-02-09T00:17:35.837Z,16.43
2023-02-09T00:20:05.900Z,16.30
2023-02-09T00:22:33.928Z,14.73
2023-02-09T00:25:00.968Z,15.93
2023-02-09T00:27:28.001Z,16.07
2023-02-09T00:29:54.926Z,15.40
2023-02-09T00:32:21.847Z,16.33
2023-02-09T00:34:48.827Z,13.87
2023-02-09T00:37:15.790Z,15.57
2023-02-09T00:39:42.690Z,14.33
2023-02-09T00:42:11.150Z,14.93
2023-02-09T00:44:40.140Z,14.93
2023-02-09T00:47:08.506Z,13.90
2023-02-09T00:49:36.007Z,13.73
2023-02-09T00:52:02.994Z,15.27
2023-02-09T00:54:29.960Z,15.63
2023-02-09T00:56:58.577Z,14.23
2023-02-09T00:59:25.502Z,14.73
2023-02-09T01:01:52.580Z,14.23
2023-02-09T01:04:19.564Z,14.40
2023-02-09T01:06:46.526Z,13.53
2023-02-09T01:09:13.539Z,14.77
2023-02-09T01:11:40.557Z,15.67
2023-02-09T01:14:07.527Z,14.97
2023-02-09T01:16:34.483Z,13.67
2023-02-09T01:19:02.666Z,16.00
2023-02-09T01:21:30.374Z,16.53
2023-02-09T01:23:57.417Z,17.00
2023-02-09T01:26:24.421Z,18.27
2023-02-09T01:28:53.158Z,16.00
2023-02-09T01:31:27.084Z,17.33
2023-02-09T01:33:56.114Z,16.03
2023-02-09T01:36:23.178Z,16.67
2023-02-09T01:38:50.883Z,15.20
2023-02-09T01:41:18.125Z,15.47
2023-02-09T01:44:04.920Z,14.43
2023-02-09T01:46:34.489Z,14.93
2023-02-09T01:49:15.094Z,16.83
2023-02-09T01:51:53.669Z,17.07
2023-02-09T01:54:42.770Z,15.87
2023-02-09T01:57:18.809Z,16.33
2023-02-09T01:59:51.017Z,16.30
2023-02-09T02:02:18.372Z,15.73
2023-02-09T02:04:45.669Z,14.07
2023-02-09T02:07:20.105Z,15.60
2023-02-09T02:09:47.770Z,13.30
2023-02-09T02:12:15.417Z,13.73
2023-02-09T02:14:42.331Z,13.50
2023-02-09T02:17:28.060Z,14.37
2023-02-09T02:20:17.956Z,14.57
2023-02-09T02:22:59.916Z,15.03
2023-02-09T02:26:00.690Z,14.73
2023-02-09T02:28:36.385Z,14.53
2023-02-09T02:31:34.097Z,13.90
2023-02-09T02:34:15.354Z,15.60
2023-02-09T02:36:52.174Z,14.80
2023-02-09T02:39:43.155Z,15.27
2023-02-09T02:42:49.830Z,14.97
2023-02-09T02:45:21.410Z,14.87
2023-02-09T02:48:12.617Z,14.00
2023-02-09T02:50:49.372Z,15.30
2023-02-09T02:53:19.764Z,15.30
2023-02-09T02:55:48.978Z,16.43
2023-02-09T02:58:19.640Z,15.47
2023-02-09T03:00:50.589Z,15.10
2023-02-09T03:03:29.777Z,17.20
2023-02-09T03:05:58.872Z,16.23
2023-02-09T03:08:25.765Z,17.93
2023-02-09T03:10:52.928Z,15.90
2023-02-09T03:13:31.934Z,17.27
2023-02-09T03:16:28.691Z,17.20
2023-02-09T03:19:06.829Z,15.47
2023-02-09T03:22:07.365Z,15.27
2023-02-09T03:24:34.218Z,13.77
2023-02-09T03:27:10.519Z,14.23
2023-02-09T03:29:38.506Z,14.23
2023-02-09T03:32:06.595Z,14.30
2023-02-09T03:34:36.875Z,13.13
2023-02-09T03:37:03.828Z,12.97
2023-02-09T03:39:30.796Z,11.87
2023-02-09T03:41:57.760Z,14.03
2023-02-09T03:44:27.799Z,13.53
2023-02-09T03:46:57.539Z,12.90
2023-02-09T03:49:26.476Z,16.90
2023-02-09T03:51:53.780Z,23.70
2023-02-09T03:54:21.480Z,16.73
2023-02-09T03:56:48.389Z,16.77
2023-02-09T03:59:15.504Z,17.20
2023-02-09T04:01:42.430Z,17.97
2023-02-09T04:04:09.516Z,14.27
2023-02-09T04:06:37.561Z,15.07
2023-02-09T04:09:05.980Z,14.07
2023-02-09T04:11:32.926Z,16.80
2023-02-09T04:13:59.849Z,15.40
2023-02-09T04:16:26.826Z,14.47
2023-02-09T04:18:53.968Z,14.33
2023-02-09T04:21:21.089Z,15.20
2023-02-09T04:23:48.236Z,13.73
2023-02-09T04:26:15.958Z,15.67
2023-02-09T04:28:44.274Z,13.30
2023-02-09T04:31:11.679Z,12.97
2023-02-09T04:33:38.756Z,15.97
2023-02-09T04:36:06.807Z,16.80
2023-02-09T04:38:33.781Z,16.17
2023-02-09T04:41:02.795Z,15.13
2023-02-09T04:43:31.169Z,16.97
2023-02-09T04:45:58.782Z,13.90
2023-02-09T04:48:27.872Z,14.23
2023-02-09T04:50:54.824Z,13.77
2023-02-09T04:53:22.476Z,14.30
2023-02-09T04:55:51.075Z,13.80
2023-02-09T04:58:38.365Z,14.23
2023-02-09T05:01:06.025Z,12.27
2023-02-09T05:03:33.495Z,14.93
2023-02-09T05:06:03.570Z,13.63
2023-02-09T05:08:31.128Z,14.67
2023-02-09T05:10:58.654Z,13.30
2023-02-09T05:13:26.735Z,14.23
2023-02-09T05:15:53.960Z,14.83
2023-02-09T05:18:21.586Z,12.10
2023-02-09T05:20:49.169Z,13.07
2023-02-09T05:23:17.159Z,11.73
2023-02-09T05:25:45.788Z,11.83
2023-02-09T05:28:12.930Z,13.87
2023-02-09T05:30:39.889Z,12.47
2023-02-09T05:33:06.870Z,12.43
2023-02-09T05:35:33.899Z,10.57
2023-02-09T05:38:00.820Z,11.10
2023-02-09T05:40:27.835Z,12.97
2023-02-09T05:42:55.154Z,11.07
2023-02-09T05:45:23.795Z,11.90
2023-02-09T05:47:50.880Z,12.53
2023-02-09T05:50:17.810Z,11.70
2023-02-09T05:52:45.169Z,10.83
2023-02-09T05:55:12.139Z,12.63
2023-02-09T05:57:39.108Z,11.60
2023-02-09T06:00:09.655Z,13.33
2023-02-09T06:02:36.636Z,10.47
2023-02-09T06:05:03.757Z,13.40
2023-02-09T06:07:30.719Z,15.17
2023-02-09T06:09:57.668Z,10.80
2023-02-09T06:12:24.655Z,10.80
2023-02-09T06:14:51.848Z,10.43
2023-02-09T06:17:18.747Z,10.00
2023-02-09T06:19:45.812Z,12.13
2023-02-09T06:22:12.954Z,15.77
2023-02-09T06:24:39.910Z,27.50
2023-02-09T06:27:06.806Z,20.27
2023-02-09T06:29:33.758Z,14.90
2023-02-09T06:32:00.784Z,12.43
2023-02-09T06:34:27.862Z,10.83
2023-02-09T06:36:55.023Z,11.03
2023-02-09T06:39:21.910Z,9.70
2023-02-09T06:41:49.301Z,10.50
2023-02-09T06:44:16.242Z,13.13
2023-02-09T06:46:43.231Z,10.20
2023-02-09T06:49:10.143Z,9.97
2023-02-09T06:51:37.227Z,10.97
2023-02-09T06:54:04.559Z,9.60
2023-02-09T06:56:31.489Z,11.50
2023-02-09T06:58:58.374Z,11.43
2023-02-09T07:01:25.320Z,9.87
2023-02-09T07:03:52.334Z,11.37
2023-02-09T07:06:21.157Z,11.20
2023-02-09T07:08:49.787Z,10.50
2023-02-09T07:11:19.136Z,10.57
2023-02-09T07:13:46.668Z,12.70
2023-02-09T07:16:14.443Z,10.77
2023-02-09T07:18:41.832Z,11.73
2023-02-09T07:21:12.088Z,14.30
2023-02-09T07:23:39.190Z,11.47
2023-02-09T07:26:13.144Z,11.87
2023-02-09T07:28:40.034Z,12.33
2023-02-09T07:31:10.906Z,12.60
2023-02-09T07:33:38.047Z,14.40
2023-02-09T07:36:07.124Z,14.13
2023-02-09T07:38:35.175Z,11.97
2023-02-09T07:41:04.325Z,13.10
2023-02-09T07:43:31.942Z,12.77
2023-02-09T07:46:01.013Z,13.77
2023-02-09T07:48:28.357Z,14.53
2023-02-09T07:50:55.808Z,14.53
2023-02-09T07:53:22.867Z,17.13
2023-02-09T07:55:49.909Z,15.93
2023-02-09T07:58:18.349Z,18.47
2023-02-09T08:00:48.765Z,16.13
2023-02-09T08:03:22.818Z,18.83
2023-02-09T08:05:58.235Z,16.53
2023-02-09T08:08:25.163Z,17.07
2023-02-09T08:10:54.445Z,15.47
2023-02-09T08:13:22.405Z,13.67
2023-02-09T08:15:54.309Z,13.93
2023-02-09T08:18:29.089Z,12.40
2023-02-09T08:20:56.104Z,13.20
2023-02-09T08:23:28.082Z,12.90
2023-02-09T08:25:56.087Z,12.70
2023-02-09T08:28:34.869Z,10.50
2023-02-09T08:31:08.978Z,9.53
2023-02-09T08:33:36.073Z,9.30
2023-02-09T08:36:04.079Z,10.03
2023-02-09T08:38:31.108Z,8.67
2023-02-09T08:41:01.504Z,8.97
2023-02-09T08:43:28.532Z,10.57
2023-02-09T08:45:55.562Z,9.97
2023-02-09T08:48:22.532Z,8.77
2023-02-09T08:50:49.493Z,8.77
2023-02-09T08:53:16.376Z,8.90
2023-02-09T08:55:43.813Z,8.77
2023-02-09T08:58:11.690Z,9.77
2023-02-09T09:00:38.646Z,8.50
2023-02-09T09:03:06.387Z,9.23
2023-02-09T09:05:36.743Z,8.63
2023-02-09T09:08:07.112Z,7.90
2023-02-09T09:10:34.226Z,9.80
2023-02-09T09:13:01.153Z,9.43
2023-02-09T09:15:28.262Z,8.63
2023-02-09T09:17:55.233Z,9.27
2023-02-09T09:20:22.667Z,9.47
2023-02-09T09:22:50.030Z,8.57
2023-02-09T09:25:17.000Z,9.97
2023-02-09T09:27:44.893Z,9.30
2023-02-09T09:30:12.425Z,10.30
2023-02-09T09:32:39.462Z,9.07
2023-02-09T09:35:06.606Z,8.13
2023-02-09T09:37:33.616Z,8.47
2023-02-09T09:40:00.655Z,8.97
2023-02-09T09:42:37.732Z,9.00
2023-02-09T09:45:07.807Z,8.20
2023-02-09T09:47:38.093Z,8.67
2023-02-09T09:50:08.108Z,8.43
2023-02-09T09:52:41.140Z,9.50
2023-02-09T09:55:12.623Z,8.40
2023-02-09T09:57:44.198Z,8.33
2023-02-09T10:00:23.702Z,8.10
2023-02-09T10:02:51.259Z,7.97
2023-02-09T10:05:24.841Z,8.23
2023-02-09T10:07:58.253Z,8.63
2023-02-09T10:10:51.177Z,8.73
2023-02-09T10:13:30.193Z,8.37
2023-02-09T10:15:58.392Z,9.13
2023-02-09T10:18:25.669Z,8.00
2023-02-09T10:20:54.827Z,9.17
2023-02-09T10:23:37.950Z,10.67
2023-02-09T10:26:19.504Z,8.33
2023-02-09T10:28:59.008Z,8.90
2023-02-09T10:31:38.530Z,8.80
2023-02-09T10:34:13.022Z,8.70
2023-02-09T10:36:49.838Z,8.57
2023-02-09T10:39:25.368Z,8.40
2023-02-09T10:41:55.339Z,10.10
2023-02-09T10:44:25.308Z,11.43
2023-02-09T10:47:25.495Z,9.33
2023-02-09T10:50:10.932Z,8.73
2023-02-09T10:52:42.046Z,8.37
2023-02-09T10:55:22.626Z,9.13
2023-02-09T10:57:49.577Z,7.33
2023-02-09T11:00:16.511Z,10.80
2023-02-09T11:02:51.591Z,9.13
2023-02-09T11:05:21.477Z,7.70
2023-02-09T11:07:54.579Z,8.77
2023-02-09T11:10:22.191Z,8.23
2023-02-09T11:12:49.247Z,8.07
2023-02-09T11:15:23.756Z,8.10
2023-02-09T11:17:54.838Z,9.07
2023-02-09T11:20:35.594Z,8.67
2023-02-09T11:23:07.701Z,8.10
2023-02-09T11:25:49.590Z,8.00
2023-02-09T11:28:48.394Z,8.00
2023-02-09T11:31:29.870Z,7.67
2023-02-09T11:34:38.431Z,8.20
2023-02-09T11:37:16.251Z,8.50
2023-02-09T11:39:53.461Z,8.50
2023-02-09T11:42:45.547Z,9.07
2023-02-09T11:45:22.108Z,8.60
2023-02-09T11:48:08.830Z,9.60
2023-02-09T11:50:44.372Z,8.40
2023-02-09T11:53:25.819Z,8.40
2023-02-09T11:55:56.830Z,9.33
2023-02-09T11:58:31.930Z,10.57
2023-02-09T12:01:15.486Z,10.03
2023-02-09T12:04:09.312Z,9.30
2023-02-09T12:06:41.531Z,8.90
2023-02-09T12:09:23.576Z,9.57
2023-02-09T12:12:30.879Z,8.40
2023-02-09T12:15:17.850Z,10.67
2023-02-09T12:17:58.883Z,8.57
2023-02-09T12:20:48.290Z,10.93
2023-02-09T12:23:35.692Z,9.40
2023-02-09T12:26:34.091Z,10.27
2023-02-09T12:29:39.682Z,10.03
2023-02-09T12:32:06.965Z,9.10
2023-02-09T12:34:42.091Z,9.80
2023-02-09T12:37:18.023Z,9.90
2023-02-09T12:40:03.869Z,9.67
2023-02-09T12:42:46.517Z,10.47
2023-02-09T12:45:35.925Z,8.67
2023-02-09T12:48:08.972Z,9.27
2023-02-09T12:50:49.961Z,10.47
2023-02-09T12:53:23.352Z,8.77
2023-02-09T12:56:11.300Z,8.90
2023-02-09T12:58:43.896Z,10.13
2023-02-09T13:01:13.792Z,10.00
2023-02-09T13:03:44.684Z,8.63
2023-02-09T13:06:28.339Z,10.37
2023-02-09T13:09:01.430Z,11.07
2023-02-09T13:11:46.357Z,9.40
2023-02-09T13:14:16.190Z,9.73
2023-02-09T13:17:19.119Z,12.07
2023-02-09T13:19:57.965Z,7.90
2023-02-09T13:22:44.171Z,9.30
2023-02-09T13:25:29.468Z,8.90
2023-02-09T13:27:56.466Z,9.43
2023-02-09T13:30:28.083Z,10.33
2023-02-09T13:33:09.345Z,11.70
2023-02-09T13:35:47.768Z,8.47
2023-02-09T13:38:17.800Z,8.80
2023-02-09T13:40:47.383Z,9.70
2023-02-09T13:43:43.977Z,10.50
2023-02-09T13:46:24.556Z,8.60
2023-02-09T13:48:51.487Z,8.87
2023-02-09T13:51:20.639Z,10.27
2023-02-09T13:54:01.861Z,8.63
2023-02-09T13:56:30.978Z,8.90
2023-02-09T13:58:58.423Z,8.50
2023-02-09T14:01:36.732Z,9.37
2023-02-09T14:04:06.560Z,9.70
2023-02-09T14:06:55.147Z,11.97
2023-02-09T14:09:29.610Z,9.63
2023-02-09T14:12:10.652Z,9.03
2023-02-09T14:15:01.061Z,10.40
2023-02-09T14:17:34.980Z,10.23
2023-02-09T14:20:03.165Z,10.03
2023-02-09T14:22:38.820Z,8.53
2023-02-09T14:25:18.195Z,10.07
2023-02-09T14:27:48.857Z,8.70
2023-02-09T14:30:20.497Z,9.00
2023-02-09T14:32:52.528Z,8.80
2023-02-09T14:35:28.659Z,9.10
2023-02-09T14:37:58.832Z,10.57
2023-02-09T14:40:28.685Z,11.63
2023-02-09T14:42:59.504Z,10.87
2023-02-09T14:45:39.425Z,9.17
2023-02-09T14:48:19.909Z,10.10
2023-02-09T14:50:48.886Z,10.77
2023-02-09T14:53:17.229Z,9.67
2023-02-09T14:55:44.561Z,10.30
2023-02-09T14:58:25.299Z,8.33
2023-02-09T15:00:54.392Z,10.00
2023-02-09T15:03:21.871Z,9.10
2023-02-09T15:05:51.572Z,9.47
2023-02-09T15:08:21.403Z,8.73
2023-02-09T15:10:53.260Z,8.00
2023-02-09T15:13:21.142Z,9.17
2023-02-09T15:15:50.993Z,9.30
2023-02-09T15:18:20.460Z,10.23
2023-02-09T15:20:47.782Z,8.53
2023-02-09T15:23:14.949Z,8.17
2023-02-09T15:25:42.358Z,8.27
2023-02-09T15:28:19.054Z,8.63
2023-02-09T15:30:46.768Z,8.83
2023-02-09T15:33:13.886Z,9.40
2023-02-09T15:35:41.302Z,8.33
2023-02-09T15:38:10.067Z,8.33
2023-02-09T15:41:00.958Z,7.83
2023-02-09T15:43:46.790Z,9.83
2023-02-09T15:46:32.874Z,8.07
2023-02-09T15:49:00.028Z,9.63
2023-02-09T15:51:31.201Z,10.47
2023-02-09T15:54:01.939Z,26.03
2023-02-09T15:56:28.908Z,29.97
2023-02-09T15:58:58.807Z,31.73
2023-02-09T16:01:25.860Z,28.50
2023-02-09T16:03:54.208Z,31.90
2023-02-09T16:06:27.295Z,16.20
2023-02-09T16:08:57.771Z,16.67
2023-02-09T16:11:32.926Z,12.10
2023-02-09T16:13:59.963Z,11.27
2023-02-09T16:16:28.187Z,13.03
2023-02-09T16:18:55.389Z,12.83
2023-02-09T16:21:26.009Z,10.57
2023-02-09T16:23:56.051Z,16.77
2023-02-09T16:26:24.438Z,13.17
2023-02-09T16:28:52.336Z,12.10
2023-02-09T16:31:20.742Z,13.47
2023-02-09T16:33:47.793Z,22.17
2023-02-09T16:36:17.615Z,16.47
2023-02-09T16:38:44.778Z,16.43
2023-02-09T16:41:32.719Z,18.30
2023-02-09T16:44:00.833Z,13.17
2023-02-09T16:46:30.646Z,11.03
2023-02-09T16:49:00.510Z,9.00
2023-02-09T16:51:27.564Z,8.40
2023-02-09T16:53:55.207Z,8.80
2023-02-09T16:56:22.251Z,8.70
2023-02-09T16:58:49.196Z,10.83
2023-02-09T17:01:21.462Z,9.87
2023-02-09T17:03:51.635Z,11.37
2023-02-09T17:06:24.928Z,9.03
2023-02-09T17:08:53.215Z,9.63
2023-02-09T17:11:22.622Z,10.70
2023-02-09T17:13:49.846Z,8.63
2023-02-09T17:16:22.966Z,10.40
2023-02-09T17:18:52.353Z,9.63
2023-02-09T17:21:28.401Z,14.07
2023-02-09T17:23:57.392Z,12.90
2023-02-09T17:26:24.912Z,12.77
2023-02-09T17:28:52.385Z,13.37
2023-02-09T17:31:23.534Z,11.73
2023-02-09T17:33:56.641Z,12.43
2023-02-09T17:36:27.547Z,12.53
2023-02-09T17:39:00.277Z,12.63
2023-02-09T17:41:43.037Z,12.93
2023-02-09T17:44:39.188Z,11.20
2023-02-09T17:47:14.895Z,10.40
2023-02-09T17:49:41.944Z,10.27
2023-02-09T17:52:19.667Z,9.27
2023-02-09T17:54:46.834Z,10.40
2023-02-09T17:57:15.508Z,10.90
2023-02-09T17:59:43.103Z,11.43
2023-02-09T18:02:16.214Z,11.23
2023-02-09T18:04:43.886Z,11.93
2023-02-09T18:07:11.053Z,10.20
2023-02-09T18:09:37.952Z,16.50
2023-02-09T18:12:11.217Z,18.80
2023-02-09T18:14:38.102Z,17.83
2023-02-09T18:17:05.173Z,19.03
2023-02-09T18:19:32.905Z,25.33
2023-02-09T18:22:01.840Z,28.90
2023-02-09T18:24:32.295Z,23.00
2023-02-09T18:26:59.733Z,20.97
2023-02-09T18:29:29.353Z,21.10
2023-02-09T18:32:01.691Z,17.57
2023-02-09T18:34:29.496Z,14.30
2023-02-09T18:36:56.498Z,12.90
2023-02-09T18:39:23.693Z,13.87
2023-02-09T18:41:56.757Z,13.13
2023-02-09T18:44:28.770Z,16.00
2023-02-09T18:46:57.748Z,14.63
2023-02-09T18:49:24.822Z,13.00
2023-02-09T18:51:52.218Z,13.73
2023-02-09T18:54:19.532Z,13.53
2023-02-09T18:56:46.480Z,15.17
2023-02-09T18:59:13.377Z,14.27
2023-02-09T19:01:41.038Z,14.97
2023-02-09T19:04:08.035Z,16.60
2023-02-09T19:06:35.464Z,15.83
2023-02-09T19:09:02.404Z,14.90
2023-02-09T19:11:29.434Z,16.10
2023-02-09T19:14:14.975Z,18.30
2023-02-09T19:16:41.959Z,14.73
2023-02-09T19:19:09.332Z,14.40
2023-02-09T19:21:36.580Z,13.47
2023-02-09T19:24:04.090Z,15.37
2023-02-09T19:26:31.009Z,14.70
2023-02-09T19:28:58.225Z,18.80
2023-02-09T19:31:25.296Z,25.77
2023-02-09T19:33:56.753Z,28.53
2023-02-09T19:36:25.047Z,29.73
2023-02-09T19:38:52.136Z,31.83
2023-02-09T19:41:20.456Z,26.77
2023-02-09T19:43:47.424Z,30.53
2023-02-09T19:46:14.730Z,26.57
2023-02-09T19:48:41.917Z,23.73
2023-02-09T19:51:09.274Z,22.80
2023-02-09T19:53:36.442Z,18.27
2023-02-09T19:56:03.450Z,20.20
2023-02-09T19:58:30.489Z,19.27
2023-02-09T20:00:57.969Z,20.77
2023-02-09T20:03:25.280Z,15.67
2023-02-09T20:05:52.365Z,14.23
2023-02-09T20:08:20.025Z,13.60
2023-02-09T20:10:47.398Z,13.70
2023-02-09T20:13:15.234Z,14.77
2023-02-09T20:15:44.155Z,14.30
2023-02-09T20:18:13.518Z,11.53
2023-02-09T20:20:43.350Z,11.53
2023-02-09T20:23:15.687Z,12.27
2023-02-09T20:25:44.733Z,12.63
2023-02-09T20:28:13.549Z,12.83
2023-02-09T20:30:43.198Z,14.10
2023-02-09T20:33:10.513Z,13.67
2023-02-09T20:35:44.155Z,14.77
2023-02-09T20:38:11.766Z,14.50
2023-02-09T20:40:43.990Z,14.57
2023-02-09T20:43:30.769Z,13.57
2023-02-09T20:46:16.473Z,35.17
2023-02-09T20:48:43.459Z,27.53
2023-02-09T20:51:10.856Z,15.13
2023-02-09T20:53:37.758Z,21.50
2023-02-09T20:56:04.954Z,31.30
2023-02-09T20:58:31.921Z,31.47
2023-02-09T21:00:58.826Z,26.90
2023-02-09T21:03:25.812Z,25.57
2023-02-09T21:05:52.724Z,25.20
2023-02-09T21:08:20.789Z,23.47
2023-02-09T21:10:55.395Z,19.97
2023-02-09T21:13:22.408Z,18.47
2023-02-09T21:15:50.348Z,16.63
2023-02-09T21:18:18.318Z,18.57
2023-02-09T21:20:45.888Z,16.13
2023-02-09T21:23:12.878Z,17.13
2023-02-09T21:25:39.841Z,16.83
2023-02-09T21:28:07.029Z,19.20
2023-02-09T21:30:34.026Z,19.80
2023-02-09T21:33:01.168Z,24.00
2023-02-09T21:35:28.180Z,26.90
2023-02-09T21:37:55.105Z,21.83
2023-02-09T21:40:23.038Z,19.37
2023-02-09T21:42:50.715Z,18.77
2023-02-09T21:45:17.731Z,17.53
2023-02-09T21:47:44.680Z,20.23
2023-02-09T21:50:12.829Z,19.20
2023-02-09T21:52:39.786Z,18.83
2023-02-09T21:55:08.311Z,15.80
2023-02-09T21:57:37.910Z,14.57
2023-02-09T22:00:07.637Z,15.10
2023-02-09T22:02:35.453Z,15.80
2023-02-09T22:05:02.781Z,13.80
2023-02-09T22:07:29.731Z,14.47
2023-02-09T22:09:56.611Z,13.80
2023-02-09T22:12:23.528Z,15.07
2023-02-09T22:14:50.468Z,14.37
2023-02-09T22:17:17.454Z,16.10
2023-02-09T22:19:44.489Z,14.63
2023-02-09T22:22:11.592Z,14.10
2023-02-09T22:24:38.745Z,16.20
2023-02-09T22:27:05.710Z,18.70
2023-02-09T22:29:35.899Z,17.77
2023-02-09T22:32:02.867Z,16.10
2023-02-09T22:34:29.815Z,16.57
2023-02-09T22:36:56.816Z,17.57
2023-02-09T22:39:23.705Z,17.93
2023-02-09T22:41:50.651Z,14.37
2023-02-09T22:44:18.116Z,17.70
2023-02-09T22:46:46.394Z,17.33
2023-02-09T22:49:17.449Z,16.37
2023-02-09T22:51:45.616Z,15.83
2023-02-09T22:54:14.377Z,16.43
2023-02-09T22:56:41.674Z,15.73
2023-02-09T22:59:10.525Z,14.33
2023-02-09T23:01:37.573Z,15.10
2023-02-09T23:04:04.692Z,14.90
2023-02-09T23:06:31.658Z,14.40
2023-02-09T23:09:01.556Z,14.70
2023-02-09T23:11:30.473Z,15.97
2023-02-09T23:14:13.696Z,17.17
2023-02-09T23:16:42.359Z,15.23
2023-02-09T23:19:13.241Z,16.27
2023-02-09T23:21:43.543Z,15.60
2023-02-09T23:24:11.299Z,16.23
2023-02-09T23:26:38.998Z,15.73
2023-02-09T23:29:08.630Z,14.90
2023-02-09T23:31:36.538Z,16.40
2023-02-09T23:34:04.093Z,14.80
2023-02-09T23:36:32.638Z,13.63
2023-02-09T23:39:01.686Z,16.07
2023-02-09T23:41:29.533Z,19.07
2023-02-09T23:43:57.375Z,17.47
2023-02-09T23:46:28.440Z,15.47
2023-02-09T23:48:56.619Z,17.13
2023-02-09T23:51:29.662Z,16.00
2023-02-09T23:53:58.760Z,18.20
2023-02-09T23:56:36.534Z,16.70
2023-02-09T23:59:05.831Z,16.80
